sensor_id;sensor_type;location;lat;lon;timestamp;P1;durP1;ratioP1;P2;durP2;ratioP2
24425;SDS011;12611;44.446;26.000;2023-04-25T00:02:13;5.73;;;2.50;;
24425;SDS011;12611;44.446;26.000;2023-04-25T00:04:42;4.93;;;2.63;;
24425;SDS011;12611;44.446;26.000;2023-04-25T00:07:11;3.60;;;2.07;;
24425;SDS011;12611;44.446;26.000;2023-04-25T00:09:40;3.50;;;2.23;;
24425;SDS011;12611;44.446;26.000;2023-04-25T00:12:10;6.53;;;2.40;;
24425;SDS011;12611;44.446;26.000;2023-04-25T00:14:38;3.87;;;2.23;;
24425;SDS011;12611;44.446;26.000;2023-04-25T00:17:07;4.70;;;2.00;;
24425;SDS011;12611;44.446;26.000;2023-04-25T00:19:35;5.27;;;2.07;;
24425;SDS011;12611;44.446;26.000;2023-04-25T00:22:04;3.13;;;2.13;;
24425;SDS011;12611;44.446;26.000;2023-04-25T00:24:32;3.77;;;2.90;;
24425;SDS011;12611;44.446;26.000;2023-04-25T00:27:01;3.07;;;1.57;;
24425;SDS011;12611;44.446;26.000;2023-04-25T00:29:30;3.17;;;1.97;;
24425;SDS011;12611;44.446;26.000;2023-04-25T00:31:59;4.80;;;2.27;;
24425;SDS011;12611;44.446;26.000;2023-04-25T00:34:28;3.73;;;2.43;;
24425;SDS011;12611;44.446;26.000;2023-04-25T00:36:56;5.03;;;2.67;;
24425;SDS011;12611;44.446;26.000;2023-04-25T00:39:25;3.90;;;2.57;;
24425;SDS011;12611;44.446;26.000;2023-04-25T00:41:53;3.57;;;1.73;;
24425;SDS011;12611;44.446;26.000;2023-04-25T00:44:22;4.83;;;2.37;;
24425;SDS011;12611;44.446;26.000;2023-04-25T00:46:54;5.10;;;2.00;;
24425;SDS011;12611;44.446;26.000;2023-04-25T00:49:23;4.03;;;2.27;;
24425;SDS011;12611;44.446;26.000;2023-04-25T00:51:51;4.60;;;2.67;;
24425;SDS011;12611;44.446;26.000;2023-04-25T00:54:20;3.53;;;2.60;;
24425;SDS011;12611;44.446;26.000;2023-04-25T00:56:48;3.33;;;2.47;;
24425;SDS011;12611;44.446;26.000;2023-04-25T00:59:17;5.07;;;3.10;;
24425;SDS011;12611;44.446;26.000;2023-04-25T01:01:46;3.70;;;2.40;;
24425;SDS011;12611;44.446;26.000;2023-04-25T01:04:16;5.13;;;3.00;;
24425;SDS011;12611;44.446;26.000;2023-04-25T01:06:45;3.20;;;2.13;;
24425;SDS011;12611;44.446;26.000;2023-04-25T01:09:14;3.17;;;2.33;;
24425;SDS011;12611;44.446;26.000;2023-04-25T01:11:42;3.20;;;2.50;;
24425;SDS011;12611;44.446;26.000;2023-04-25T01:14:11;4.97;;;1.60;;
24425;SDS011;12611;44.446;26.000;2023-04-25T01:16:39;2.77;;;1.90;;
24425;SDS011;12611;44.446;26.000;2023-04-25T01:19:09;3.93;;;2.27;;
24425;SDS011;12611;44.446;26.000;2023-04-25T01:21:40;2.30;;;1.47;;
24425;SDS011;12611;44.446;26.000;2023-04-25T01:24:08;2.97;;;1.50;;
24425;SDS011;12611;44.446;26.000;2023-04-25T01:26:37;3.60;;;1.87;;
24425;SDS011;12611;44.446;26.000;2023-04-25T01:29:07;3.50;;;2.27;;
24425;SDS011;12611;44.446;26.000;2023-04-25T01:31:35;3.07;;;1.43;;
24425;SDS011;12611;44.446;26.000;2023-04-25T01:34:04;3.27;;;1.87;;
24425;SDS011;12611;44.446;26.000;2023-04-25T01:36:33;2.60;;;1.70;;
24425;SDS011;12611;44.446;26.000;2023-04-25T01:39:03;4.40;;;1.83;;
24425;SDS011;12611;44.446;26.000;2023-04-25T01:41:31;3.23;;;1.40;;
24425;SDS011;12611;44.446;26.000;2023-04-25T01:44:01;2.70;;;1.50;;
24425;SDS011;12611;44.446;26.000;2023-04-25T01:46:30;5.13;;;2.20;;
24425;SDS011;12611;44.446;26.000;2023-04-25T01:48:58;4.13;;;2.10;;
24425;SDS011;12611;44.446;26.000;2023-04-25T01:51:27;5.27;;;1.70;;
24425;SDS011;12611;44.446;26.000;2023-04-25T01:53:56;4.53;;;2.33;;
24425;SDS011;12611;44.446;26.000;2023-04-25T01:56:30;1.93;;;1.33;;
24425;SDS011;12611;44.446;26.000;2023-04-25T01:58:59;5.60;;;1.67;;
24425;SDS011;12611;44.446;26.000;2023-04-25T02:01:28;3.40;;;2.23;;
24425;SDS011;12611;44.446;26.000;2023-04-25T02:03:56;1.90;;;1.33;;
24425;SDS011;12611;44.446;26.000;2023-04-25T02:06:25;1.90;;;1.40;;
24425;SDS011;12611;44.446;26.000;2023-04-25T02:08:54;4.53;;;2.10;;
24425;SDS011;12611;44.446;26.000;2023-04-25T02:11:22;3.13;;;2.37;;
24425;SDS011;12611;44.446;26.000;2023-04-25T02:13:52;3.90;;;2.17;;
24425;SDS011;12611;44.446;26.000;2023-04-25T02:16:21;2.70;;;1.53;;
24425;SDS011;12611;44.446;26.000;2023-04-25T02:18:50;3.40;;;1.97;;
24425;SDS011;12611;44.446;26.000;2023-04-25T02:21:19;1.67;;;1.20;;
24425;SDS011;12611;44.446;26.000;2023-04-25T02:23:47;2.80;;;1.30;;
24425;SDS011;12611;44.446;26.000;2023-04-25T02:26:18;3.07;;;1.60;;
24425;SDS011;12611;44.446;26.000;2023-04-25T02:28:47;3.17;;;1.77;;
24425;SDS011;12611;44.446;26.000;2023-04-25T02:31:17;2.77;;;1.67;;
24425;SDS011;12611;44.446;26.000;2023-04-25T02:33:47;2.67;;;1.57;;
24425;SDS011;12611;44.446;26.000;2023-04-25T02:36:16;3.87;;;2.63;;
24425;SDS011;12611;44.446;26.000;2023-04-25T02:38:44;3.07;;;2.07;;
24425;SDS011;12611;44.446;26.000;2023-04-25T02:41:12;2.13;;;1.40;;
24425;SDS011;12611;44.446;26.000;2023-04-25T02:43:41;3.90;;;1.87;;
24425;SDS011;12611;44.446;26.000;2023-04-25T02:46:09;2.73;;;1.77;;
24425;SDS011;12611;44.446;26.000;2023-04-25T02:48:39;2.57;;;1.83;;
24425;SDS011;12611;44.446;26.000;2023-04-25T02:51:08;1.70;;;1.10;;
24425;SDS011;12611;44.446;26.000;2023-04-25T02:53:36;1.37;;;0.90;;
24425;SDS011;12611;44.446;26.000;2023-04-25T02:56:04;4.87;;;1.43;;
24425;SDS011;12611;44.446;26.000;2023-04-25T02:58:33;1.60;;;1.23;;
24425;SDS011;12611;44.446;26.000;2023-04-25T03:01:01;2.00;;;1.40;;
24425;SDS011;12611;44.446;26.000;2023-04-25T03:03:30;2.20;;;1.17;;
24425;SDS011;12611;44.446;26.000;2023-04-25T03:06:00;4.67;;;1.33;;
24425;SDS011;12611;44.446;26.000;2023-04-25T03:08:32;2.67;;;1.47;;
24425;SDS011;12611;44.446;26.000;2023-04-25T03:11:01;2.17;;;1.40;;
24425;SDS011;12611;44.446;26.000;2023-04-25T03:13:29;1.67;;;1.00;;
24425;SDS011;12611;44.446;26.000;2023-04-25T03:15:58;1.97;;;1.70;;
24425;SDS011;12611;44.446;26.000;2023-04-25T03:18:26;0.97;;;0.70;;
24425;SDS011;12611;44.446;26.000;2023-04-25T03:20:54;1.30;;;0.90;;
24425;SDS011;12611;44.446;26.000;2023-04-25T03:23:24;1.23;;;0.70;;
24425;SDS011;12611;44.446;26.000;2023-04-25T03:25:53;1.20;;;1.00;;
24425;SDS011;12611;44.446;26.000;2023-04-25T03:28:21;2.10;;;1.27;;
24425;SDS011;12611;44.446;26.000;2023-04-25T03:30:50;1.87;;;1.30;;
24425;SDS011;12611;44.446;26.000;2023-04-25T03:33:18;1.50;;;1.13;;
24425;SDS011;12611;44.446;26.000;2023-04-25T03:35:46;1.90;;;1.27;;
24425;SDS011;12611;44.446;26.000;2023-04-25T03:38:16;1.87;;;1.10;;
24425;SDS011;12611;44.446;26.000;2023-04-25T03:40:46;3.20;;;1.43;;
24425;SDS011;12611;44.446;26.000;2023-04-25T03:43:15;2.87;;;1.33;;
24425;SDS011;12611;44.446;26.000;2023-04-25T03:45:43;2.23;;;1.40;;
24425;SDS011;12611;44.446;26.000;2023-04-25T03:48:12;2.00;;;1.37;;
24425;SDS011;12611;44.446;26.000;2023-04-25T03:50:41;3.47;;;1.87;;
24425;SDS011;12611;44.446;26.000;2023-04-25T03:53:09;1.30;;;1.00;;
24425;SDS011;12611;44.446;26.000;2023-04-25T03:55:37;3.23;;;1.50;;
24425;SDS011;12611;44.446;26.000;2023-04-25T03:58:10;1.40;;;0.83;;
24425;SDS011;12611;44.446;26.000;2023-04-25T04:00:38;3.10;;;1.63;;
24425;SDS011;12611;44.446;26.000;2023-04-25T04:03:07;3.30;;;2.03;;
24425;SDS011;12611;44.446;26.000;2023-04-25T04:05:35;1.37;;;1.00;;
24425;SDS011;12611;44.446;26.000;2023-04-25T04:08:07;2.93;;;2.00;;
24425;SDS011;12611;44.446;26.000;2023-04-25T04:10:35;5.33;;;1.90;;
24425;SDS011;12611;44.446;26.000;2023-04-25T04:13:04;3.90;;;2.20;;
24425;SDS011;12611;44.446;26.000;2023-04-25T04:15:33;3.33;;;1.63;;
24425;SDS011;12611;44.446;26.000;2023-04-25T04:18:02;3.43;;;1.43;;
24425;SDS011;12611;44.446;26.000;2023-04-25T04:20:30;2.07;;;1.33;;
24425;SDS011;12611;44.446;26.000;2023-04-25T04:22:59;2.30;;;1.33;;
24425;SDS011;12611;44.446;26.000;2023-04-25T04:25:27;2.60;;;1.67;;
24425;SDS011;12611;44.446;26.000;2023-04-25T04:27:56;1.83;;;1.17;;
24425;SDS011;12611;44.446;26.000;2023-04-25T04:30:25;2.10;;;1.00;;
24425;SDS011;12611;44.446;26.000;2023-04-25T04:32:57;4.70;;;2.63;;
24425;SDS011;12611;44.446;26.000;2023-04-25T04:35:27;2.27;;;1.50;;
24425;SDS011;12611;44.446;26.000;2023-04-25T04:37:56;4.23;;;1.90;;
24425;SDS011;12611;44.446;26.000;2023-04-25T04:40:24;2.63;;;1.60;;
24425;SDS011;12611;44.446;26.000;2023-04-25T04:42:53;2.93;;;1.63;;
24425;SDS011;12611;44.446;26.000;2023-04-25T04:45:22;4.67;;;2.10;;
24425;SDS011;12611;44.446;26.000;2023-04-25T04:47:51;3.57;;;1.90;;
24425;SDS011;12611;44.446;26.000;2023-04-25T04:50:23;9.17;;;2.87;;
24425;SDS011;12611;44.446;26.000;2023-04-25T04:52:51;9.03;;;2.73;;
24425;SDS011;12611;44.446;26.000;2023-04-25T04:55:20;8.53;;;3.13;;
24425;SDS011;12611;44.446;26.000;2023-04-25T04:57:49;5.50;;;2.80;;
24425;SDS011;12611;44.446;26.000;2023-04-25T05:00:17;11.13;;;3.07;;
24425;SDS011;12611;44.446;26.000;2023-04-25T05:02:47;10.37;;;2.77;;
24425;SDS011;12611;44.446;26.000;2023-04-25T05:05:15;8.30;;;3.17;;
24425;SDS011;12611;44.446;26.000;2023-04-25T05:07:45;6.27;;;2.50;;
24425;SDS011;12611;44.446;26.000;2023-04-25T05:10:14;4.67;;;2.77;;
24425;SDS011;12611;44.446;26.000;2023-04-25T05:12:42;7.43;;;3.27;;
24425;SDS011;12611;44.446;26.000;2023-04-25T05:15:11;5.65;;;3.50;;
24425;SDS011;12611;44.446;26.000;2023-04-25T05:17:39;7.70;;;2.73;;
24425;SDS011;12611;44.446;26.000;2023-04-25T05:20:08;8.07;;;3.40;;
24425;SDS011;12611;44.446;26.000;2023-04-25T05:22:37;7.73;;;2.87;;
24425;SDS011;12611;44.446;26.000;2023-04-25T05:25:09;8.90;;;3.30;;
24425;SDS011;12611;44.446;26.000;2023-04-25T05:27:38;5.67;;;3.30;;
24425;SDS011;12611;44.446;26.000;2023-04-25T05:30:07;5.50;;;3.10;;
24425;SDS011;12611;44.446;26.000;2023-04-25T05:32:36;6.07;;;3.20;;
24425;SDS011;12611;44.446;26.000;2023-04-25T05:35:05;6.97;;;3.77;;
24425;SDS011;12611;44.446;26.000;2023-04-25T05:37:34;6.30;;;3.17;;
24425;SDS011;12611;44.446;26.000;2023-04-25T05:40:03;7.03;;;4.00;;
24425;SDS011;12611;44.446;26.000;2023-04-25T05:42:34;5.73;;;3.67;;
24425;SDS011;12611;44.446;26.000;2023-04-25T05:45:03;14.43;;;4.03;;
24425;SDS011;12611;44.446;26.000;2023-04-25T05:47:32;8.10;;;3.70;;
24425;SDS011;12611;44.446;26.000;2023-04-25T05:50:01;10.13;;;3.87;;
24425;SDS011;12611;44.446;26.000;2023-04-25T05:52:29;8.63;;;4.57;;
24425;SDS011;12611;44.446;26.000;2023-04-25T05:54:58;10.17;;;5.20;;
24425;SDS011;12611;44.446;26.000;2023-04-25T05:57:27;12.60;;;5.87;;
24425;SDS011;12611;44.446;26.000;2023-04-25T05:59:57;8.40;;;4.03;;
24425;SDS011;12611;44.446;26.000;2023-04-25T06:02:25;7.90;;;3.90;;
24425;SDS011;12611;44.446;26.000;2023-04-25T06:04:54;7.50;;;4.10;;
24425;SDS011;12611;44.446;26.000;2023-04-25T06:07:23;9.40;;;4.00;;
24425;SDS011;12611;44.446;26.000;2023-04-25T06:09:51;7.47;;;3.77;;
24425;SDS011;12611;44.446;26.000;2023-04-25T06:12:20;6.53;;;3.97;;
24425;SDS011;12611;44.446;26.000;2023-04-25T06:14:48;18.60;;;4.33;;
24425;SDS011;12611;44.446;26.000;2023-04-25T06:17:18;8.30;;;4.33;;
24425;SDS011;12611;44.446;26.000;2023-04-25T06:19:47;8.40;;;4.17;;
24425;SDS011;12611;44.446;26.000;2023-04-25T06:22:15;10.20;;;4.37;;
24425;SDS011;12611;44.446;26.000;2023-04-25T06:24:44;6.73;;;3.83;;
24425;SDS011;12611;44.446;26.000;2023-04-25T06:27:13;6.10;;;3.57;;
24425;SDS011;12611;44.446;26.000;2023-04-25T06:29:42;6.60;;;3.40;;
24425;SDS011;12611;44.446;26.000;2023-04-25T06:32:10;5.73;;;3.73;;
24425;SDS011;12611;44.446;26.000;2023-04-25T06:34:40;5.93;;;3.23;;
24425;SDS011;12611;44.446;26.000;2023-04-25T06:37:09;7.80;;;4.30;;
24425;SDS011;12611;44.446;26.000;2023-04-25T06:39:37;7.30;;;3.90;;
24425;SDS011;12611;44.446;26.000;2023-04-25T06:42:06;4.70;;;3.43;;
24425;SDS011;12611;44.446;26.000;2023-04-25T06:44:35;11.57;;;3.60;;
24425;SDS011;12611;44.446;26.000;2023-04-25T06:47:03;5.20;;;3.97;;
24425;SDS011;12611;44.446;26.000;2023-04-25T06:49:35;7.47;;;3.50;;
24425;SDS011;12611;44.446;26.000;2023-04-25T06:52:05;6.53;;;3.70;;
24425;SDS011;12611;44.446;26.000;2023-04-25T06:54:34;5.10;;;2.90;;
24425;SDS011;12611;44.446;26.000;2023-04-25T06:57:03;6.97;;;3.47;;
24425;SDS011;12611;44.446;26.000;2023-04-25T06:59:31;7.80;;;3.60;;
24425;SDS011;12611;44.446;26.000;2023-04-25T07:02:00;4.43;;;2.63;;
24425;SDS011;12611;44.446;26.000;2023-04-25T07:04:28;7.73;;;3.77;;
24425;SDS011;12611;44.446;26.000;2023-04-25T07:06:57;8.40;;;4.17;;
24425;SDS011;12611;44.446;26.000;2023-04-25T07:09:28;6.20;;;3.37;;
24425;SDS011;12611;44.446;26.000;2023-04-25T07:12:00;3.60;;;2.33;;
24425;SDS011;12611;44.446;26.000;2023-04-25T07:14:29;8.83;;;3.73;;
24425;SDS011;12611;44.446;26.000;2023-04-25T07:16:57;6.67;;;3.67;;
24425;SDS011;12611;44.446;26.000;2023-04-25T07:19:26;3.50;;;2.33;;
24425;SDS011;12611;44.446;26.000;2023-04-25T07:21:56;12.30;;;3.97;;
24425;SDS011;12611;44.446;26.000;2023-04-25T07:24:24;3.90;;;2.33;;
24425;SDS011;12611;44.446;26.000;2023-04-25T07:26:54;6.63;;;3.37;;
24425;SDS011;12611;44.446;26.000;2023-04-25T07:29:23;5.77;;;3.63;;
24425;SDS011;12611;44.446;26.000;2023-04-25T07:31:51;5.80;;;3.10;;
24425;SDS011;12611;44.446;26.000;2023-04-25T07:34:20;6.87;;;3.23;;
24425;SDS011;12611;44.446;26.000;2023-04-25T07:36:48;8.30;;;3.17;;
24425;SDS011;12611;44.446;26.000;2023-04-25T07:39:17;7.67;;;3.37;;
24425;SDS011;12611;44.446;26.000;2023-04-25T07:41:45;8.97;;;3.97;;
24425;SDS011;12611;44.446;26.000;2023-04-25T07:44:15;5.30;;;2.90;;
24425;SDS011;12611;44.446;26.000;2023-04-25T07:46:43;6.67;;;4.00;;
24425;SDS011;12611;44.446;26.000;2023-04-25T07:49:11;7.63;;;2.63;;
24425;SDS011;12611;44.446;26.000;2023-04-25T07:51:40;5.17;;;2.87;;
24425;SDS011;12611;44.446;26.000;2023-04-25T07:54:09;6.30;;;3.07;;
24425;SDS011;12611;44.446;26.000;2023-04-25T07:56:40;6.00;;;4.10;;
24425;SDS011;12611;44.446;26.000;2023-04-25T07:59:20;4.77;;;3.07;;
24425;SDS011;12611;44.446;26.000;2023-04-25T08:01:49;7.67;;;4.50;;
24425;SDS011;12611;44.446;26.000;2023-04-25T08:04:17;5.87;;;3.57;;
24425;SDS011;12611;44.446;26.000;2023-04-25T08:06:46;11.03;;;3.87;;
24425;SDS011;12611;44.446;26.000;2023-04-25T08:09:14;4.63;;;2.93;;
24425;SDS011;12611;44.446;26.000;2023-04-25T08:11:43;5.43;;;3.40;;
24425;SDS011;12611;44.446;26.000;2023-04-25T08:14:12;7.53;;;3.30;;
24425;SDS011;12611;44.446;26.000;2023-04-25T08:16:42;7.20;;;3.33;;
24425;SDS011;12611;44.446;26.000;2023-04-25T08:19:10;6.67;;;3.60;;
24425;SDS011;12611;44.446;26.000;2023-04-25T08:21:39;6.83;;;3.70;;
24425;SDS011;12611;44.446;26.000;2023-04-25T08:24:07;10.10;;;3.13;;
24425;SDS011;12611;44.446;26.000;2023-04-25T08:26:38;9.47;;;4.40;;
24425;SDS011;12611;44.446;26.000;2023-04-25T08:29:07;8.67;;;4.33;;
24425;SDS011;12611;44.446;26.000;2023-04-25T08:31:36;6.10;;;3.40;;
24425;SDS011;12611;44.446;26.000;2023-04-25T08:34:06;9.70;;;4.63;;
24425;SDS011;12611;44.446;26.000;2023-04-25T08:36:34;6.87;;;4.23;;
24425;SDS011;12611;44.446;26.000;2023-04-25T08:39:05;7.23;;;4.00;;
24425;SDS011;12611;44.446;26.000;2023-04-25T08:41:34;6.43;;;3.63;;
24425;SDS011;12611;44.446;26.000;2023-04-25T08:44:03;5.77;;;3.57;;
24425;SDS011;12611;44.446;26.000;2023-04-25T08:46:34;9.17;;;4.20;;
24425;SDS011;12611;44.446;26.000;2023-04-25T08:49:06;6.50;;;4.10;;
24425;SDS011;12611;44.446;26.000;2023-04-25T08:51:39;7.83;;;4.10;;
24425;SDS011;12611;44.446;26.000;2023-04-25T08:54:14;6.90;;;3.53;;
24425;SDS011;12611;44.446;26.000;2023-04-25T08:57:01;10.37;;;4.10;;
24425;SDS011;12611;44.446;26.000;2023-04-25T08:59:32;6.40;;;3.37;;
24425;SDS011;12611;44.446;26.000;2023-04-25T09:02:02;5.27;;;3.50;;
24425;SDS011;12611;44.446;26.000;2023-04-25T09:04:32;8.83;;;4.83;;
24425;SDS011;12611;44.446;26.000;2023-04-25T09:07:01;8.03;;;4.07;;
24425;SDS011;12611;44.446;26.000;2023-04-25T09:09:29;6.27;;;3.33;;
24425;SDS011;12611;44.446;26.000;2023-04-25T09:11:58;7.37;;;3.87;;
24425;SDS011;12611;44.446;26.000;2023-04-25T09:14:28;9.07;;;4.50;;
24425;SDS011;12611;44.446;26.000;2023-04-25T09:17:00;8.37;;;4.33;;
24425;SDS011;12611;44.446;26.000;2023-04-25T09:19:33;6.77;;;3.60;;
24425;SDS011;12611;44.446;26.000;2023-04-25T09:22:07;7.33;;;3.53;;
24425;SDS011;12611;44.446;26.000;2023-04-25T09:24:36;6.20;;;4.00;;
24425;SDS011;12611;44.446;26.000;2023-04-25T09:27:06;5.93;;;3.70;;
24425;SDS011;12611;44.446;26.000;2023-04-25T09:29:35;7.93;;;4.27;;
24425;SDS011;12611;44.446;26.000;2023-04-25T09:32:10;11.13;;;5.27;;
24425;SDS011;12611;44.446;26.000;2023-04-25T09:34:46;7.63;;;3.43;;
24425;SDS011;12611;44.446;26.000;2023-04-25T09:37:19;8.53;;;4.10;;
24425;SDS011;12611;44.446;26.000;2023-04-25T09:39:49;6.87;;;4.47;;
24425;SDS011;12611;44.446;26.000;2023-04-25T09:42:22;7.73;;;3.20;;
24425;SDS011;12611;44.446;26.000;2023-04-25T09:44:51;4.00;;;2.30;;
24425;SDS011;12611;44.446;26.000;2023-04-25T09:47:22;7.57;;;2.47;;
24425;SDS011;12611;44.446;26.000;2023-04-25T09:49:53;3.43;;;2.00;;
24425;SDS011;12611;44.446;26.000;2023-04-25T09:52:23;4.07;;;1.57;;
24425;SDS011;12611;44.446;26.000;2023-04-25T09:54:52;2.90;;;1.90;;
24425;SDS011;12611;44.446;26.000;2023-04-25T09:57:21;4.27;;;2.27;;
24425;SDS011;12611;44.446;26.000;2023-04-25T09:59:50;2.80;;;1.67;;
24425;SDS011;12611;44.446;26.000;2023-04-25T10:02:20;3.33;;;1.80;;
24425;SDS011;12611;44.446;26.000;2023-04-25T10:04:50;3.50;;;2.00;;
24425;SDS011;12611;44.446;26.000;2023-04-25T10:07:22;3.77;;;1.93;;
24425;SDS011;12611;44.446;26.000;2023-04-25T10:09:54;3.33;;;2.03;;
24425;SDS011;12611;44.446;26.000;2023-04-25T10:12:26;5.37;;;2.00;;
24425;SDS011;12611;44.446;26.000;2023-04-25T10:14:54;2.73;;;1.83;;
24425;SDS011;12611;44.446;26.000;2023-04-25T10:17:23;3.00;;;1.57;;
24425;SDS011;12611;44.446;26.000;2023-04-25T10:19:55;4.77;;;2.20;;
24425;SDS011;12611;44.446;26.000;2023-04-25T10:22:26;3.77;;;1.90;;
24425;SDS011;12611;44.446;26.000;2023-04-25T10:24:58;4.00;;;1.83;;
24425;SDS011;12611;44.446;26.000;2023-04-25T10:27:30;3.53;;;2.07;;
24425;SDS011;12611;44.446;26.000;2023-04-25T10:30:02;2.33;;;1.57;;
24425;SDS011;12611;44.446;26.000;2023-04-25T10:32:32;7.37;;;2.03;;
24425;SDS011;12611;44.446;26.000;2023-04-25T10:35:12;5.03;;;2.57;;
24425;SDS011;12611;44.446;26.000;2023-04-25T10:37:58;5.97;;;2.80;;
24425;SDS011;12611;44.446;26.000;2023-04-25T10:40:30;4.07;;;2.53;;
24425;SDS011;12611;44.446;26.000;2023-04-25T10:46:01;3.27;;;1.77;;
24425;SDS011;12611;44.446;26.000;2023-04-25T10:48:30;3.03;;;1.80;;
24425;SDS011;12611;44.446;26.000;2023-04-25T10:51:10;3.50;;;2.13;;
24425;SDS011;12611;44.446;26.000;2023-04-25T10:53:39;4.80;;;1.90;;
24425;SDS011;12611;44.446;26.000;2023-04-25T10:56:11;2.83;;;1.85;;
24425;SDS011;12611;44.446;26.000;2023-04-25T10:58:43;2.72;;;1.63;;
24425;SDS011;12611;44.446;26.000;2023-04-25T11:01:14;3.03;;;1.60;;
24425;SDS011;12611;44.446;26.000;2023-04-25T11:03:43;2.13;;;1.52;;
24425;SDS011;12611;44.446;26.000;2023-04-25T11:06:18;2.90;;;1.65;;
24425;SDS011;12611;44.446;26.000;2023-04-25T11:08:50;2.75;;;1.58;;
24425;SDS011;12611;44.446;26.000;2023-04-25T11:11:19;2.15;;;1.35;;
24425;SDS011;12611;44.446;26.000;2023-04-25T11:13:48;2.35;;;1.45;;
24425;SDS011;12611;44.446;26.000;2023-04-25T11:16:17;2.13;;;1.65;;
24425;SDS011;12611;44.446;26.000;2023-04-25T11:18:53;3.10;;;1.60;;
24425;SDS011;12611;44.446;26.000;2023-04-25T11:21:26;2.95;;;2.00;;
24425;SDS011;12611;44.446;26.000;2023-04-25T11:23:55;2.72;;;1.90;;
24425;SDS011;12611;44.446;26.000;2023-04-25T11:26:24;2.17;;;1.48;;
24425;SDS011;12611;44.446;26.000;2023-04-25T11:28:56;2.97;;;1.70;;
24425;SDS011;12611;44.446;26.000;2023-04-25T11:31:26;2.30;;;1.42;;
24425;SDS011;12611;44.446;26.000;2023-04-25T11:33:56;2.13;;;1.40;;
24425;SDS011;12611;44.446;26.000;2023-04-25T11:36:26;2.22;;;1.70;;
24425;SDS011;12611;44.446;26.000;2023-04-25T11:38:55;3.53;;;1.50;;
24425;SDS011;12611;44.446;26.000;2023-04-25T11:41:23;2.58;;;1.50;;
24425;SDS011;12611;44.446;26.000;2023-04-25T11:43:53;2.53;;;1.27;;
24425;SDS011;12611;44.446;26.000;2023-04-25T11:46:22;2.20;;;1.27;;
24425;SDS011;12611;44.446;26.000;2023-04-25T11:48:50;3.22;;;1.40;;
24425;SDS011;12611;44.446;26.000;2023-04-25T11:51:30;1.73;;;1.50;;
24425;SDS011;12611;44.446;26.000;2023-04-25T11:54:12;5.28;;;1.85;;
24425;SDS011;12611;44.446;26.000;2023-04-25T11:56:41;2.65;;;1.67;;
24425;SDS011;12611;44.446;26.000;2023-04-25T11:59:10;3.08;;;1.58;;
24425;SDS011;12611;44.446;26.000;2023-04-25T12:01:40;4.93;;;1.10;;
24425;SDS011;12611;44.446;26.000;2023-04-25T12:04:15;2.17;;;0.77;;
24425;SDS011;12611;44.446;26.000;2023-04-25T12:06:47;0.60;;;0.50;;
24425;SDS011;12611;44.446;26.000;2023-04-25T12:09:18;1.53;;;1.07;;
24425;SDS011;12611;44.446;26.000;2023-04-25T12:11:49;2.80;;;0.80;;
24425;SDS011;12611;44.446;26.000;2023-04-25T12:14:21;3.50;;;0.90;;
24425;SDS011;12611;44.446;26.000;2023-04-25T12:16:51;2.33;;;1.60;;
24425;SDS011;12611;44.446;26.000;2023-04-25T12:19:20;2.90;;;0.90;;
24425;SDS011;12611;44.446;26.000;2023-04-25T12:21:50;1.30;;;0.73;;
24425;SDS011;12611;44.446;26.000;2023-04-25T12:24:25;0.77;;;0.50;;
24425;SDS011;12611;44.446;26.000;2023-04-25T12:26:58;0.90;;;0.57;;
24425;SDS011;12611;44.446;26.000;2023-04-25T12:29:29;0.97;;;0.70;;
24425;SDS011;12611;44.446;26.000;2023-04-25T12:32:13;1.20;;;0.73;;
24425;SDS011;12611;44.446;26.000;2023-04-25T12:34:42;1.33;;;0.60;;
24425;SDS011;12611;44.446;26.000;2023-04-25T12:37:12;0.90;;;0.50;;
24425;SDS011;12611;44.446;26.000;2023-04-25T12:39:41;1.23;;;0.63;;
24425;SDS011;12611;44.446;26.000;2023-04-25T12:42:09;0.90;;;0.43;;
24425;SDS011;12611;44.446;26.000;2023-04-25T12:44:39;0.87;;;0.57;;
24425;SDS011;12611;44.446;26.000;2023-04-25T12:47:08;1.60;;;1.00;;
24425;SDS011;12611;44.446;26.000;2023-04-25T12:49:39;4.30;;;2.03;;
24425;SDS011;12611;44.446;26.000;2023-04-25T12:52:08;2.57;;;1.00;;
24425;SDS011;12611;44.446;26.000;2023-04-25T12:54:41;2.70;;;0.87;;
24425;SDS011;12611;44.446;26.000;2023-04-25T12:57:09;2.33;;;1.03;;
24425;SDS011;12611;44.446;26.000;2023-04-25T12:59:38;1.77;;;0.90;;
24425;SDS011;12611;44.446;26.000;2023-04-25T13:02:06;3.47;;;1.40;;
24425;SDS011;12611;44.446;26.000;2023-04-25T13:04:35;2.07;;;1.33;;
24425;SDS011;12611;44.446;26.000;2023-04-25T13:07:03;3.53;;;1.27;;
24425;SDS011;12611;44.446;26.000;2023-04-25T13:09:31;2.80;;;0.70;;
24425;SDS011;12611;44.446;26.000;2023-04-25T13:12:01;1.57;;;0.60;;
24425;SDS011;12611;44.446;26.000;2023-04-25T13:14:30;1.87;;;0.97;;
24425;SDS011;12611;44.446;26.000;2023-04-25T13:16:58;4.23;;;1.27;;
24425;SDS011;12611;44.446;26.000;2023-04-25T13:19:27;2.70;;;1.20;;
24425;SDS011;12611;44.446;26.000;2023-04-25T13:21:56;1.13;;;0.53;;
24425;SDS011;12611;44.446;26.000;2023-04-25T13:24:25;1.80;;;0.80;;
24425;SDS011;12611;44.446;26.000;2023-04-25T13:26:53;2.83;;;1.77;;
24425;SDS011;12611;44.446;26.000;2023-04-25T13:29:23;2.00;;;0.90;;
24425;SDS011;12611;44.446;26.000;2023-04-25T13:31:51;2.60;;;0.67;;
24425;SDS011;12611;44.446;26.000;2023-04-25T13:34:20;1.03;;;0.80;;
24425;SDS011;12611;44.446;26.000;2023-04-25T13:36:49;0.50;;;0.50;;
24425;SDS011;12611;44.446;26.000;2023-04-25T13:39:20;1.03;;;0.50;;
24425;SDS011;12611;44.446;26.000;2023-04-25T13:41:49;1.20;;;0.60;;
24425;SDS011;12611;44.446;26.000;2023-04-25T13:44:18;0.80;;;0.60;;
24425;SDS011;12611;44.446;26.000;2023-04-25T13:46:48;0.73;;;0.40;;
24425;SDS011;12611;44.446;26.000;2023-04-25T13:49:17;0.70;;;0.70;;
24425;SDS011;12611;44.446;26.000;2023-04-25T13:51:45;2.78;;;1.15;;
24425;SDS011;12611;44.446;26.000;2023-04-25T13:54:14;0.73;;;0.60;;
24425;SDS011;12611;44.446;26.000;2023-04-25T13:56:42;0.55;;;0.40;;
24425;SDS011;12611;44.446;26.000;2023-04-25T13:59:12;0.57;;;0.50;;
24425;SDS011;12611;44.446;26.000;2023-04-25T14:01:40;1.65;;;0.98;;
24425;SDS011;12611;44.446;26.000;2023-04-25T14:04:10;0.82;;;0.60;;
24425;SDS011;12611;44.446;26.000;2023-04-25T14:06:38;1.67;;;0.80;;
24425;SDS011;12611;44.446;26.000;2023-04-25T14:09:07;1.98;;;1.10;;
24425;SDS011;12611;44.446;26.000;2023-04-25T14:11:36;1.58;;;1.00;;
24425;SDS011;12611;44.446;26.000;2023-04-25T14:14:05;1.42;;;1.05;;
24425;SDS011;12611;44.446;26.000;2023-04-25T14:16:33;1.92;;;0.95;;
24425;SDS011;12611;44.446;26.000;2023-04-25T14:19:01;2.35;;;1.20;;
24425;SDS011;12611;44.446;26.000;2023-04-25T14:21:31;1.65;;;1.10;;
24425;SDS011;12611;44.446;26.000;2023-04-25T14:24:00;2.10;;;1.05;;
24425;SDS011;12611;44.446;26.000;2023-04-25T14:26:28;1.92;;;0.95;;
24425;SDS011;12611;44.446;26.000;2023-04-25T14:28:57;1.85;;;1.02;;
24425;SDS011;12611;44.446;26.000;2023-04-25T14:31:26;1.70;;;0.90;;
24425;SDS011;12611;44.446;26.000;2023-04-25T14:33:54;2.08;;;1.15;;
24425;SDS011;12611;44.446;26.000;2023-04-25T14:36:25;2.17;;;1.35;;
24425;SDS011;12611;44.446;26.000;2023-04-25T14:38:55;3.00;;;1.17;;
24425;SDS011;12611;44.446;26.000;2023-04-25T14:41:23;1.35;;;0.82;;
24425;SDS011;12611;44.446;26.000;2023-04-25T14:43:52;1.35;;;1.02;;
24425;SDS011;12611;44.446;26.000;2023-04-25T14:46:22;1.58;;;0.95;;
24425;SDS011;12611;44.446;26.000;2023-04-25T14:48:50;1.10;;;0.70;;
24425;SDS011;12611;44.446;26.000;2023-04-25T14:51:19;1.55;;;1.02;;